createdAt,value
2018-12-24T00:01:10.864Z,17.77
2018-12-24T00:03:39.648Z,21.47
2018-12-24T00:06:08.421Z,20.27
2018-12-24T00:08:37.276Z,20.20
2018-12-24T00:11:06.265Z,19.87
2018-12-24T00:13:35.197Z,18.67
2018-12-24T00:16:03.654Z,23.37
2018-12-24T00:18:32.173Z,22.33
2018-12-24T00:21:00.635Z,24.10
2018-12-24T00:23:29.761Z,19.30
2018-12-24T00:25:58.409Z,21.17
2018-12-24T00:28:27.351Z,25.20
2018-12-24T00:30:55.695Z,25.43
2018-12-24T00:33:24.035Z,22.10
2018-12-24T00:35:52.757Z,22.53
2018-12-24T00:38:21.419Z,27.23
2018-12-24T00:40:50.060Z,20.67
2018-12-24T00:43:19.256Z,25.83
2018-12-24T00:45:48.295Z,21.40
2018-12-24T00:48:17.327Z,18.53
2018-12-24T00:50:45.992Z,22.37
2018-12-24T00:53:14.819Z,23.30
2018-12-24T00:55:43.825Z,20.63
2018-12-24T00:58:12.496Z,21.73
2018-12-24T01:00:41.194Z,19.33
2018-12-24T01:03:10.322Z,24.57
2018-12-24T01:05:39.283Z,20.43
2018-12-24T01:08:07.819Z,22.93
2018-12-24T01:10:36.530Z,20.43
2018-12-24T01:13:05.300Z,29.07
2018-12-24T01:15:34.114Z,24.10
2018-12-24T01:18:02.466Z,21.80
2018-12-24T01:20:30.876Z,20.00
2018-12-24T01:22:59.206Z,23.33
2018-12-24T01:25:28.251Z,17.27
2018-12-24T01:27:57.276Z,22.80
2018-12-24T01:30:25.933Z,20.87
2018-12-24T01:32:54.774Z,19.90
2018-12-24T01:35:23.411Z,25.33
2018-12-24T01:37:52.605Z,21.57
2018-12-24T01:40:21.279Z,22.20
2018-12-24T01:42:50.092Z,24.23
2018-12-24T01:45:19.299Z,23.53
2018-12-24T01:47:47.958Z,19.03
2018-12-24T01:50:16.601Z,21.50
2018-12-24T01:52:45.606Z,20.97
2018-12-24T01:55:14.279Z,20.37
2018-12-24T01:57:43.095Z,20.73
2018-12-24T02:00:12.105Z,21.47
2018-12-24T02:02:41.138Z,21.90
2018-12-24T02:05:09.791Z,20.30
2018-12-24T02:07:38.139Z,19.87
2018-12-24T02:10:06.568Z,20.73
2018-12-24T02:12:42.045Z,23.30
2018-12-24T02:15:04.995Z,18.73
2018-12-24T02:17:33.551Z,19.30
2018-12-24T02:20:01.888Z,17.53
2018-12-24T02:22:30.238Z,20.80
2018-12-24T02:24:58.730Z,18.17
2018-12-24T02:27:27.081Z,18.70
2018-12-24T02:29:55.415Z,19.27
2018-12-24T02:32:23.758Z,18.67
2018-12-24T02:34:52.619Z,20.20
2018-12-24T02:37:21.274Z,20.37
2018-12-24T02:39:50.297Z,19.83
2018-12-24T02:42:18.963Z,18.30
2018-12-24T02:44:47.770Z,18.37
2018-12-24T02:47:16.422Z,19.07
2018-12-24T02:49:45.431Z,22.07
2018-12-24T02:52:13.752Z,20.33
2018-12-24T02:54:42.075Z,20.07
2018-12-24T02:57:10.747Z,21.70
2018-12-24T02:59:39.593Z,23.70
2018-12-24T03:02:07.940Z,22.97
2018-12-24T03:04:36.267Z,21.13
2018-12-24T03:07:04.713Z,23.77
2018-12-24T03:09:33.531Z,18.97
2018-12-24T03:12:02.219Z,20.17
2018-12-24T03:14:31.037Z,22.93
2018-12-24T03:16:59.382Z,18.43
2018-12-24T03:19:27.709Z,17.13
2018-12-24T03:21:56.064Z,7.27
2018-12-24T03:24:24.504Z,7.10
2018-12-24T03:26:52.843Z,14.37
2018-12-24T03:29:21.242Z,16.67
2018-12-24T03:31:49.584Z,13.97
2018-12-24T03:34:18.038Z,16.80
2018-12-24T03:36:46.827Z,16.90
2018-12-24T03:39:15.185Z,18.20
2018-12-24T03:41:43.884Z,16.23
2018-12-24T03:44:12.700Z,24.33
2018-12-24T03:46:41.044Z,15.63
2018-12-24T03:49:09.363Z,16.63
2018-12-24T03:51:37.688Z,17.90
2018-12-24T03:54:06.000Z,18.87
2018-12-24T03:56:34.329Z,15.60
2018-12-24T03:59:02.667Z,16.40
2018-12-24T04:01:31.695Z,14.73
2018-12-24T04:04:00.027Z,17.33
2018-12-24T04:06:28.454Z,17.00
2018-12-24T04:08:56.783Z,17.43
2018-12-24T04:11:25.156Z,18.63
2018-12-24T04:13:53.498Z,14.93
2018-12-24T04:16:21.868Z,14.40
2018-12-24T04:18:50.197Z,15.47
2018-12-24T04:21:18.507Z,15.37
2018-12-24T04:23:46.849Z,16.00
2018-12-24T04:26:15.203Z,17.90
2018-12-24T04:28:43.537Z,16.53
2018-12-24T04:31:11.865Z,17.87
2018-12-24T04:33:40.259Z,19.63
2018-12-24T04:36:08.612Z,16.27
2018-12-24T04:38:37.099Z,16.53
2018-12-24T04:41:05.847Z,17.17
2018-12-24T04:43:34.679Z,18.93
2018-12-24T04:46:03.018Z,18.70
2018-12-24T04:48:31.626Z,20.30
2018-12-24T04:51:00.399Z,16.30
2018-12-24T04:53:29.246Z,16.63
2018-12-24T04:55:57.746Z,17.70
2018-12-24T04:58:26.498Z,17.17
2018-12-24T05:00:55.370Z,17.17
2018-12-24T05:03:24.179Z,19.77
2018-12-24T05:05:53.046Z,18.93
2018-12-24T05:08:21.795Z,18.90
2018-12-24T05:10:50.463Z,18.50
2018-12-24T05:13:19.090Z,18.10
2018-12-24T05:15:47.915Z,18.20
2018-12-24T05:18:17.126Z,19.43
2018-12-24T05:20:45.847Z,17.37
2018-12-24T05:23:14.201Z,19.73
2018-12-24T05:25:42.552Z,19.00
2018-12-24T05:28:10.888Z,20.10
2018-12-24T05:30:39.231Z,17.80
2018-12-24T05:33:07.559Z,18.37
2018-12-24T05:35:35.893Z,18.37
2018-12-24T05:38:04.307Z,16.57
2018-12-24T05:40:32.649Z,18.37
2018-12-24T05:43:00.992Z,17.10
2018-12-24T05:45:29.360Z,20.57
2018-12-24T05:47:57.694Z,17.03
2018-12-24T05:50:26.043Z,17.80
2018-12-24T05:52:54.394Z,20.70
2018-12-24T05:55:23.135Z,19.77
2018-12-24T05:57:51.793Z,20.33
2018-12-24T06:00:20.131Z,20.67
2018-12-24T06:02:48.459Z,19.40
2018-12-24T06:05:16.805Z,21.40
2018-12-24T06:07:45.347Z,21.03
2018-12-24T06:10:13.756Z,15.57
2018-12-24T06:12:42.135Z,16.97
2018-12-24T06:15:10.476Z,18.23
2018-12-24T06:17:38.824Z,17.10
2018-12-24T06:20:07.166Z,19.10
2018-12-24T06:22:35.506Z,17.63
2018-12-24T06:25:03.865Z,20.60
2018-12-24T06:27:32.179Z,22.73
2018-12-24T06:30:00.551Z,16.37
2018-12-24T06:32:28.895Z,19.33
2018-12-24T06:34:57.223Z,17.37
2018-12-24T06:37:25.572Z,15.70
2018-12-24T06:39:53.916Z,18.87
2018-12-24T06:42:22.302Z,11.47
2018-12-24T06:44:50.647Z,14.60
2018-12-24T06:47:18.980Z,14.23
2018-12-24T06:49:47.327Z,12.80
2018-12-24T06:52:15.661Z,6.17
2018-12-24T06:54:43.989Z,4.37
2018-12-24T06:57:12.318Z,6.23
2018-12-24T06:59:40.648Z,3.97
2018-12-24T07:02:08.972Z,1.80
2018-12-24T07:04:37.304Z,2.23
2018-12-24T07:07:05.747Z,1.60
2018-12-24T07:09:34.090Z,1.50
2018-12-24T07:12:02.403Z,1.40
2018-12-24T07:14:30.798Z,1.30
2018-12-24T07:16:59.130Z,2.03
2018-12-24T07:19:27.500Z,31.40
2018-12-24T07:21:55.820Z,1.97
2018-12-24T07:24:24.321Z,1.20
2018-12-24T07:26:53.055Z,1.23
2018-12-24T07:29:22.091Z,1.37
2018-12-24T07:31:50.787Z,2.37
2018-12-24T07:34:19.581Z,2.30
2018-12-24T07:36:47.884Z,1.20
2018-12-24T07:39:16.246Z,1.20
2018-12-24T07:41:44.570Z,2.43
2018-12-24T07:44:12.893Z,11.67
2018-12-24T07:46:41.364Z,7.37
2018-12-24T07:49:09.674Z,2.30
2018-12-24T07:51:38.011Z,1.13
2018-12-24T07:54:06.350Z,1.80
2018-12-24T07:56:34.830Z,3.33
2018-12-24T07:59:03.762Z,2.43
2018-12-24T08:01:32.442Z,6.13
2018-12-24T08:04:01.432Z,2.10
2018-12-24T08:06:30.123Z,1.23
2018-12-24T08:08:58.448Z,2.30
2018-12-24T08:11:26.785Z,1.23
2018-12-24T08:13:55.099Z,1.00
2018-12-24T08:16:23.430Z,1.70
2018-12-24T08:18:51.817Z,4.33
2018-12-24T08:21:20.147Z,0.90
2018-12-24T08:23:48.478Z,1.27
2018-12-24T08:26:16.815Z,5.53
2018-12-24T08:28:45.156Z,0.93
2018-12-24T08:31:13.498Z,1.50
2018-12-24T08:33:42.312Z,1.97
2018-12-24T08:36:10.970Z,2.27
2018-12-24T08:38:39.612Z,3.87
2018-12-24T08:41:08.586Z,1.23
2018-12-24T08:43:37.158Z,2.20
2018-12-24T08:46:05.934Z,1.50
2018-12-24T08:48:34.739Z,2.17
2018-12-24T08:51:03.494Z,2.30
2018-12-24T08:53:31.830Z,1.77
2018-12-24T08:56:00.267Z,2.03
2018-12-24T08:58:28.645Z,1.73
2018-12-24T09:00:56.965Z,1.73
2018-12-24T09:03:25.787Z,1.20
2018-12-24T09:05:54.784Z,2.40
2018-12-24T09:08:24.019Z,1.50
2018-12-24T09:10:52.671Z,5.53
2018-12-24T09:13:22.263Z,1.37
2018-12-24T09:15:51.293Z,1.20
2018-12-24T09:18:20.126Z,1.07
2018-12-24T09:20:52.654Z,1.43
2018-12-24T09:23:18.951Z,1.47
2018-12-24T09:25:47.271Z,1.00
2018-12-24T09:28:15.601Z,1.10
2018-12-24T09:30:47.313Z,2.67
2018-12-24T09:33:16.086Z,3.43
2018-12-24T09:35:44.490Z,1.20
2018-12-24T09:38:12.828Z,1.00
2018-12-24T09:40:41.170Z,1.17
2018-12-24T09:43:09.625Z,1.43
2018-12-24T09:45:37.983Z,1.67
2018-12-24T09:48:06.311Z,1.07
2018-12-24T09:50:34.683Z,2.47
2018-12-24T09:53:03.057Z,3.87
2018-12-24T09:55:31.440Z,1.87
2018-12-24T09:57:59.888Z,1.07
2018-12-24T10:00:28.248Z,0.93
2018-12-24T10:03:15.551Z,0.97
2018-12-24T10:05:43.968Z,1.20
2018-12-24T10:08:14.356Z,1.20
2018-12-24T10:10:42.667Z,1.53
2018-12-24T10:13:10.979Z,3.80
2018-12-24T10:15:39.305Z,2.93
2018-12-24T10:18:07.802Z,1.80
2018-12-24T10:20:36.462Z,0.90
2018-12-24T10:23:04.904Z,1.83
2018-12-24T10:25:33.226Z,1.80
2018-12-24T10:28:01.646Z,2.00
2018-12-24T10:30:30.040Z,2.73
2018-12-24T10:32:58.407Z,1.63
2018-12-24T10:35:27.501Z,1.17
2018-12-24T10:37:55.834Z,3.03
2018-12-24T10:40:24.328Z,1.70
2018-12-24T10:42:52.658Z,2.00
2018-12-24T10:45:21.131Z,3.77
2018-12-24T10:47:49.494Z,1.53
2018-12-24T10:50:17.832Z,0.90
2018-12-24T10:52:46.151Z,1.30
2018-12-24T10:55:14.595Z,1.37
2018-12-24T10:57:42.955Z,4.17
2018-12-24T11:00:11.888Z,2.27
2018-12-24T11:02:40.238Z,1.40
2018-12-24T11:05:08.558Z,1.60
2018-12-24T11:07:36.873Z,1.07
2018-12-24T11:10:06.698Z,1.10
2018-12-24T11:12:35.116Z,3.77
2018-12-24T11:15:03.516Z,1.53
2018-12-24T11:17:31.834Z,0.90
2018-12-24T11:20:00.326Z,1.20
2018-12-24T11:22:28.879Z,1.43
2018-12-24T11:24:57.222Z,1.20
2018-12-24T11:27:25.558Z,1.27
2018-12-24T11:29:53.895Z,0.90
2018-12-24T11:32:22.466Z,1.00
2018-12-24T11:34:50.896Z,0.50
2018-12-24T11:37:19.247Z,0.60
2018-12-24T11:39:47.649Z,0.63
2018-12-24T11:42:15.953Z,0.83
2018-12-24T11:44:44.314Z,0.97
2018-12-24T11:47:12.630Z,0.60
2018-12-24T11:49:40.904Z,0.40
2018-12-24T11:52:09.203Z,0.50
2018-12-24T11:54:37.523Z,1.93
2018-12-24T11:57:05.877Z,0.40
2018-12-24T11:59:34.231Z,1.43
2018-12-24T12:02:09.775Z,0.67
2018-12-24T12:04:32.717Z,0.77
2018-12-24T12:07:01.571Z,0.83
2018-12-24T12:09:30.220Z,1.53
2018-12-24T12:11:58.545Z,0.60
2018-12-24T12:14:26.908Z,0.63
2018-12-24T12:16:55.237Z,0.50
2018-12-24T12:19:23.547Z,0.50
2018-12-24T12:21:52.002Z,1.13
2018-12-24T12:24:20.339Z,0.50
2018-12-24T12:26:48.713Z,0.60
2018-12-24T12:29:17.067Z,0.70
2018-12-24T12:31:45.444Z,2.03
2018-12-24T12:34:13.779Z,0.67
2018-12-24T12:36:42.223Z,0.60
2018-12-24T12:39:10.549Z,1.60
2018-12-24T12:41:38.911Z,1.80
2018-12-24T12:44:07.256Z,2.13
2018-12-24T12:46:35.589Z,0.53
2018-12-24T12:49:03.934Z,0.87
2018-12-24T12:51:32.264Z,1.07
2018-12-24T12:54:00.586Z,0.87
2018-12-24T12:56:28.922Z,0.93
2018-12-24T12:58:57.258Z,0.70
2018-12-24T13:01:25.624Z,0.60
2018-12-24T13:03:54.054Z,1.00
2018-12-24T13:06:22.375Z,1.60
2018-12-24T13:08:50.767Z,1.43
2018-12-24T13:11:19.095Z,0.77
2018-12-24T13:13:47.432Z,0.70
2018-12-24T13:16:15.739Z,0.83
2018-12-24T13:18:44.074Z,1.27
2018-12-24T13:21:12.394Z,1.37
2018-12-24T13:23:40.772Z,0.70
2018-12-24T13:26:09.098Z,0.87
2018-12-24T13:28:37.430Z,0.80
2018-12-24T13:31:05.780Z,0.67
2018-12-24T13:33:34.115Z,0.60
2018-12-24T13:36:02.481Z,2.47
2018-12-24T13:38:30.809Z,0.70
2018-12-24T13:40:59.199Z,2.10
2018-12-24T13:43:27.591Z,0.60
2018-12-24T13:45:56.584Z,1.60
2018-12-24T13:48:24.955Z,1.03
2018-12-24T13:50:53.292Z,0.87
2018-12-24T13:53:21.618Z,1.30
2018-12-24T13:55:50.081Z,0.70
2018-12-24T13:58:18.577Z,0.63
2018-12-24T14:00:46.986Z,0.63
2018-12-24T14:03:15.354Z,1.73
2018-12-24T14:05:43.654Z,1.23
2018-12-24T14:08:11.982Z,0.87
2018-12-24T14:10:40.357Z,0.30
2018-12-24T14:13:08.971Z,1.00
2018-12-24T14:15:37.395Z,0.70
2018-12-24T14:18:05.749Z,3.40
2018-12-24T14:20:35.231Z,0.50
2018-12-24T14:23:04.357Z,0.50
2018-12-24T14:25:33.819Z,0.57
2018-12-24T14:28:03.015Z,2.83
2018-12-24T14:30:31.366Z,0.53
2018-12-24T14:32:59.705Z,1.10
2018-12-24T14:35:28.108Z,1.23
2018-12-24T14:37:56.447Z,1.00
2018-12-24T14:40:24.869Z,1.10
2018-12-24T14:42:53.207Z,0.63
2018-12-24T14:45:21.950Z,1.00
2018-12-24T14:47:50.692Z,1.20
2018-12-24T14:50:19.611Z,1.00
2018-12-24T14:52:47.930Z,1.33
2018-12-24T14:55:16.271Z,2.43
2018-12-24T14:57:44.824Z,0.80
2018-12-24T15:00:13.278Z,0.50
2018-12-24T15:02:41.619Z,0.57
2018-12-24T15:05:09.962Z,2.13
2018-12-24T15:07:38.404Z,1.87
2018-12-24T15:10:06.950Z,0.47
2018-12-24T15:12:35.782Z,1.30
2018-12-24T15:15:04.200Z,0.67
2018-12-24T15:17:32.691Z,0.70
2018-12-24T15:20:01.048Z,0.70
2018-12-24T15:22:29.476Z,0.77
2018-12-24T15:24:57.815Z,1.07
2018-12-24T15:27:26.159Z,0.80
2018-12-24T15:29:54.515Z,1.10
2018-12-24T15:32:22.866Z,2.83
2018-12-24T15:34:51.190Z,0.70
2018-12-24T15:37:19.522Z,1.33
2018-12-24T15:39:47.854Z,1.07
2018-12-24T15:42:16.191Z,1.53
2018-12-24T15:44:44.526Z,1.03
2018-12-24T15:47:12.972Z,0.80
2018-12-24T15:49:41.360Z,1.30
2018-12-24T15:52:09.696Z,1.33
2018-12-24T15:54:38.046Z,3.67
2018-12-24T15:57:06.385Z,1.87
2018-12-24T15:59:34.731Z,1.10
2018-12-24T16:02:03.083Z,1.87
2018-12-24T16:04:31.422Z,0.80
2018-12-24T16:06:59.863Z,1.10
2018-12-24T16:09:28.246Z,0.93
2018-12-24T16:11:56.579Z,2.27
2018-12-24T16:14:24.927Z,1.10
2018-12-24T16:16:53.278Z,1.63
2018-12-24T16:19:21.657Z,0.63
2018-12-24T16:21:50.127Z,1.60
2018-12-24T16:24:18.463Z,0.90
2018-12-24T16:26:46.799Z,1.47
2018-12-24T16:29:15.136Z,1.20
2018-12-24T16:31:43.483Z,0.70
2018-12-24T16:34:12.831Z,0.63
2018-12-24T16:36:41.163Z,1.20
2018-12-24T16:39:09.498Z,1.17
2018-12-24T16:41:37.842Z,1.30
2018-12-24T16:44:06.189Z,1.03
2018-12-24T16:46:34.523Z,1.03
2018-12-24T16:49:02.896Z,2.00
2018-12-24T16:51:31.226Z,2.43
2018-12-24T16:53:59.619Z,1.13
2018-12-24T16:56:27.975Z,0.83
2018-12-24T16:58:56.295Z,2.57
2018-12-24T17:01:24.616Z,0.80
2018-12-24T17:03:53.003Z,0.83
2018-12-24T17:06:21.305Z,3.10
2018-12-24T17:08:49.643Z,1.23
2018-12-24T17:11:18.299Z,1.07
2018-12-24T17:13:47.593Z,3.37
2018-12-24T17:16:15.948Z,2.70
2018-12-24T17:18:44.258Z,1.37
2018-12-24T17:21:12.759Z,3.60
2018-12-24T17:23:41.105Z,1.30
2018-12-24T17:26:09.499Z,2.30
2018-12-24T17:28:37.831Z,1.90
2018-12-24T17:31:06.177Z,1.63
2018-12-24T17:33:35.007Z,2.30
2018-12-24T17:36:03.313Z,1.60
2018-12-24T17:38:31.653Z,1.43
2018-12-24T17:41:00.106Z,1.40
2018-12-24T17:43:28.490Z,2.07
2018-12-24T17:45:56.806Z,1.37
2018-12-24T17:48:25.166Z,1.53
2018-12-24T17:50:53.480Z,1.77
2018-12-24T17:53:21.798Z,2.30
2018-12-24T17:55:50.139Z,1.53
2018-12-24T17:58:18.535Z,1.67
2018-12-24T18:00:46.854Z,1.60
2018-12-24T18:03:15.542Z,1.70
2018-12-24T18:05:44.578Z,3.27
2018-12-24T18:08:12.894Z,2.67
2018-12-24T18:10:41.218Z,2.37
2018-12-24T18:13:09.531Z,2.63
2018-12-24T18:15:37.868Z,2.30
2018-12-24T18:18:06.187Z,4.57
2018-12-24T18:20:34.616Z,3.00
2018-12-24T18:23:02.971Z,3.53
2018-12-24T18:25:32.562Z,3.50
2018-12-24T18:28:01.092Z,2.53
2018-12-24T18:30:29.471Z,2.43
2018-12-24T18:32:57.782Z,3.80
2018-12-24T18:35:26.126Z,2.60
2018-12-24T18:37:54.443Z,2.50
2018-12-24T18:40:22.783Z,3.23
2018-12-24T18:42:51.127Z,2.67
2018-12-24T18:45:19.465Z,4.27
2018-12-24T18:47:48.151Z,2.07
2018-12-24T18:50:16.503Z,3.10
2018-12-24T18:52:44.906Z,2.73
2018-12-24T18:55:13.455Z,2.83
2018-12-24T18:57:41.786Z,2.77
2018-12-24T19:00:10.841Z,2.70
2018-12-24T19:02:39.221Z,5.03
2018-12-24T19:05:08.216Z,5.03
2018-12-24T19:07:36.570Z,3.63
2018-12-24T19:10:05.590Z,2.73
2018-12-24T19:12:34.061Z,3.70
2018-12-24T19:15:02.705Z,3.00
2018-12-24T19:17:32.073Z,3.33
2018-12-24T19:20:00.727Z,3.07
2018-12-24T19:22:29.049Z,2.97
2018-12-24T19:24:57.363Z,5.23
2018-12-24T19:27:25.726Z,3.47
2018-12-24T19:29:54.061Z,3.70
2018-12-24T19:32:22.397Z,6.57
2018-12-24T19:34:51.421Z,3.07
2018-12-24T19:37:19.795Z,3.33
2018-12-24T19:39:48.110Z,2.93
2018-12-24T19:42:16.612Z,3.37
2018-12-24T19:44:44.918Z,2.93
2018-12-24T19:47:13.271Z,2.73
2018-12-24T19:49:41.599Z,8.33
2018-12-24T19:52:09.942Z,3.23
2018-12-24T19:54:38.277Z,2.97
2018-12-24T19:57:06.604Z,3.23
2018-12-24T19:59:34.961Z,3.07
2018-12-24T20:02:03.297Z,3.70
2018-12-24T20:04:31.616Z,3.40
2018-12-24T20:06:59.998Z,3.10
2018-12-24T20:09:28.346Z,4.47
2018-12-24T20:11:56.796Z,3.67
2018-12-24T20:14:25.116Z,2.67
2018-12-24T20:16:53.537Z,2.63
2018-12-24T20:19:21.856Z,2.60
2018-12-24T20:21:50.198Z,4.60
2018-12-24T20:24:18.546Z,3.13
2018-12-24T20:26:46.893Z,4.70
2018-12-24T20:29:15.243Z,3.70
2018-12-24T20:31:43.591Z,2.73
2018-12-24T20:34:11.922Z,2.30
2018-12-24T20:36:40.277Z,3.93
2018-12-24T20:39:10.139Z,3.60
2018-12-24T20:41:38.794Z,3.13
2018-12-24T20:44:07.097Z,2.87
2018-12-24T20:46:35.713Z,2.57
2018-12-24T20:49:04.579Z,2.77
2018-12-24T20:51:32.887Z,2.43
2018-12-24T20:54:01.260Z,3.03
2018-12-24T20:56:29.585Z,2.47
2018-12-24T20:58:58.232Z,2.40
2018-12-24T21:01:26.716Z,3.07
2018-12-24T21:03:55.038Z,2.50
2018-12-24T21:06:23.392Z,2.60
2018-12-24T21:08:51.727Z,4.03
2018-12-24T21:11:20.702Z,3.50
2018-12-24T21:13:49.558Z,2.67
2018-12-24T21:16:18.109Z,2.50
2018-12-24T21:18:46.453Z,2.13
2018-12-24T21:21:15.498Z,2.87
2018-12-24T21:23:43.958Z,2.33
2018-12-24T21:26:12.282Z,2.63
2018-12-24T21:28:40.706Z,2.43
2018-12-24T21:31:09.059Z,3.73
2018-12-24T21:33:37.370Z,2.50
2018-12-24T21:36:05.705Z,4.67
2018-12-24T21:38:34.075Z,3.03
2018-12-24T21:41:02.378Z,2.60
2018-12-24T21:43:31.207Z,3.13
2018-12-24T21:46:00.048Z,2.67
2018-12-24T21:48:28.791Z,2.97
2018-12-24T21:50:57.149Z,3.33
2018-12-24T21:53:25.470Z,2.30
2018-12-24T21:55:53.846Z,2.60
2018-12-24T21:58:22.168Z,2.90
2018-12-24T22:00:50.495Z,2.53
2018-12-24T22:03:18.842Z,2.47
2018-12-24T22:05:47.152Z,3.40
2018-12-24T22:08:15.482Z,2.83
2018-12-24T22:10:43.832Z,2.60
2018-12-24T22:13:12.181Z,2.60
2018-12-24T22:15:40.561Z,2.77
2018-12-24T22:18:08.899Z,2.70
2018-12-24T22:20:37.218Z,2.80
2018-12-24T22:23:05.558Z,2.30
2018-12-24T22:25:33.911Z,2.50
2018-12-24T22:28:02.215Z,2.53
2018-12-24T22:30:30.555Z,2.40
2018-12-24T22:32:58.926Z,2.47
2018-12-24T22:35:27.270Z,3.00
2018-12-24T22:37:55.613Z,2.80
2018-12-24T22:40:24.046Z,4.23
2018-12-24T22:42:52.425Z,2.60
2018-12-24T22:45:20.749Z,2.77
2018-12-24T22:47:49.141Z,3.67
2018-12-24T22:50:17.501Z,2.80
2018-12-24T22:52:45.838Z,2.43
2018-12-24T22:55:14.179Z,3.10
2018-12-24T22:57:42.533Z,3.83
2018-12-24T23:00:13.944Z,2.93
2018-12-24T23:02:42.270Z,2.90
2018-12-24T23:05:10.722Z,2.57
2018-12-24T23:07:39.071Z,3.47
2018-12-24T23:10:07.521Z,3.43
2018-12-24T23:12:35.880Z,3.63
2018-12-24T23:15:04.401Z,3.37
2018-12-24T23:17:32.773Z,5.83
2018-12-24T23:20:01.219Z,3.47
2018-12-24T23:22:29.586Z,1.90
2018-12-24T23:24:57.908Z,2.83
2018-12-24T23:27:26.250Z,4.03
2018-12-24T23:29:54.598Z,3.17
2018-12-24T23:32:22.923Z,2.80
2018-12-24T23:34:51.252Z,2.53
2018-12-24T23:37:19.597Z,2.57
2018-12-24T23:39:47.925Z,3.30
2018-12-24T23:42:16.279Z,2.90
2018-12-24T23:44:44.650Z,3.20
2018-12-24T23:47:13.031Z,2.60
2018-12-24T23:49:41.395Z,2.60
2018-12-24T23:52:09.818Z,2.33
2018-12-24T23:54:38.179Z,2.90
2018-12-24T23:57:06.571Z,3.03
2018-12-24T23:59:34.926Z,3.60
